Ashville, Alabama
Current Conditions -  °F | °C
As of 6:15 PM on Monday 24 Nov 2014 (Local Time) from KGAD Reporting Station
Clear Clear  
Wind Chill: 55°   Ceiling: Unl
Heat Index: 55°   Visibility: 10mi
Dew Point: 39°   Wind: 6mph
Humidity: 54%   Direction: 270°W
Pressure: 29.93"   Gusts: NA
Location:  33.84°N, 86.25°W
Report Text: KGAD 250015Z 27005KT 10SM CLR 13/04 A2993 RMK AO1
Loading
Personal Weather Stations






























Interactive Weather Map New forecast layout! Learn more

10-Day Weather Forecast

Advertisements
Track Severe Weather on mobile